sensor_id;sensor_type;location;lat;lon;timestamp;P1;durP1;ratioP1;P2;durP2;ratioP2
5507;SDS011;2776;51.046;6.772;2024-02-26T00:00:09;0.77;;;0.60;;
5507;SDS011;2776;51.046;6.772;2024-02-26T00:02:37;0.80;;;0.80;;
5507;SDS011;2776;51.046;6.772;2024-02-26T00:05:07;1.30;;;0.60;;
5507;SDS011;2776;51.046;6.772;2024-02-26T00:07:34;0.67;;;0.67;;
5507;SDS011;2776;51.046;6.772;2024-02-26T00:10:01;0.63;;;0.43;;
5507;SDS011;2776;51.046;6.772;2024-02-26T00:12:27;0.93;;;0.67;;
5507;SDS011;2776;51.046;6.772;2024-02-26T00:14:54;1.37;;;0.63;;
5507;SDS011;2776;51.046;6.772;2024-02-26T00:17:23;0.97;;;0.60;;
5507;SDS011;2776;51.046;6.772;2024-02-26T00:19:50;0.83;;;0.77;;
5507;SDS011;2776;51.046;6.772;2024-02-26T00:22:18;3.60;;;0.60;;
5507;SDS011;2776;51.046;6.772;2024-02-26T00:24:44;0.83;;;0.40;;
5507;SDS011;2776;51.046;6.772;2024-02-26T00:27:11;0.60;;;0.30;;
5507;SDS011;2776;51.046;6.772;2024-02-26T00:29:38;0.40;;;0.40;;
5507;SDS011;2776;51.046;6.772;2024-02-26T00:32:05;0.97;;;0.50;;
5507;SDS011;2776;51.046;6.772;2024-02-26T00:34:32;0.37;;;0.37;;
5507;SDS011;2776;51.046;6.772;2024-02-26T00:36:59;1.60;;;0.83;;
5507;SDS011;2776;51.046;6.772;2024-02-26T00:39:27;0.30;;;0.30;;
5507;SDS011;2776;51.046;6.772;2024-02-26T00:41:53;1.63;;;0.70;;
5507;SDS011;2776;51.046;6.772;2024-02-26T00:44:20;0.80;;;0.53;;
5507;SDS011;2776;51.046;6.772;2024-02-26T00:46:47;0.50;;;0.50;;
5507;SDS011;2776;51.046;6.772;2024-02-26T00:49:13;0.70;;;0.40;;
5507;SDS011;2776;51.046;6.772;2024-02-26T00:51:40;1.13;;;0.50;;
5507;SDS011;2776;51.046;6.772;2024-02-26T00:54:07;0.40;;;0.40;;
5507;SDS011;2776;51.046;6.772;2024-02-26T00:56:35;0.70;;;0.60;;
5507;SDS011;2776;51.046;6.772;2024-02-26T00:59:02;1.17;;;0.87;;
5507;SDS011;2776;51.046;6.772;2024-02-26T01:01:28;1.37;;;0.80;;
5507;SDS011;2776;51.046;6.772;2024-02-26T01:03:55;0.40;;;0.40;;
5507;SDS011;2776;51.046;6.772;2024-02-26T01:06:22;0.40;;;0.33;;
5507;SDS011;2776;51.046;6.772;2024-02-26T01:08:49;0.60;;;0.60;;
5507;SDS011;2776;51.046;6.772;2024-02-26T01:11:15;0.70;;;0.63;;
5507;SDS011;2776;51.046;6.772;2024-02-26T01:13:43;1.03;;;0.60;;
5507;SDS011;2776;51.046;6.772;2024-02-26T01:16:10;1.20;;;0.57;;
5507;SDS011;2776;51.046;6.772;2024-02-26T01:18:37;2.43;;;0.73;;
5507;SDS011;2776;51.046;6.772;2024-02-26T01:21:04;0.57;;;0.57;;
5507;SDS011;2776;51.046;6.772;2024-02-26T01:23:33;0.40;;;0.40;;
5507;SDS011;2776;51.046;6.772;2024-02-26T01:26:00;1.03;;;0.73;;
5507;SDS011;2776;51.046;6.772;2024-02-26T01:28:27;0.40;;;0.33;;
5507;SDS011;2776;51.046;6.772;2024-02-26T01:30:55;0.57;;;0.57;;
5507;SDS011;2776;51.046;6.772;2024-02-26T01:33:23;0.73;;;0.70;;
5507;SDS011;2776;51.046;6.772;2024-02-26T01:35:52;0.70;;;0.70;;
5507;SDS011;2776;51.046;6.772;2024-02-26T01:38:19;1.50;;;0.47;;
5507;SDS011;2776;51.046;6.772;2024-02-26T01:40:45;0.40;;;0.40;;
5507;SDS011;2776;51.046;6.772;2024-02-26T01:43:12;0.77;;;0.67;;
5507;SDS011;2776;51.046;6.772;2024-02-26T01:45:39;0.73;;;0.37;;
5507;SDS011;2776;51.046;6.772;2024-02-26T01:48:07;0.77;;;0.43;;
5507;SDS011;2776;51.046;6.772;2024-02-26T01:50:35;0.57;;;0.47;;
5507;SDS011;2776;51.046;6.772;2024-02-26T01:53:03;0.40;;;0.40;;
5507;SDS011;2776;51.046;6.772;2024-02-26T01:55:30;0.60;;;0.40;;
5507;SDS011;2776;51.046;6.772;2024-02-26T01:57:57;0.30;;;0.30;;
5507;SDS011;2776;51.046;6.772;2024-02-26T02:00:25;0.97;;;0.80;;
5507;SDS011;2776;51.046;6.772;2024-02-26T02:02:53;0.20;;;0.20;;
5507;SDS011;2776;51.046;6.772;2024-02-26T02:05:21;0.60;;;0.30;;
5507;SDS011;2776;51.046;6.772;2024-02-26T02:07:49;0.30;;;0.30;;
5507;SDS011;2776;51.046;6.772;2024-02-26T02:10:16;0.33;;;0.33;;
5507;SDS011;2776;51.046;6.772;2024-02-26T02:12:47;0.20;;;0.20;;
5507;SDS011;2776;51.046;6.772;2024-02-26T02:15:14;0.43;;;0.30;;
5507;SDS011;2776;51.046;6.772;2024-02-26T02:17:41;0.27;;;0.27;;
5507;SDS011;2776;51.046;6.772;2024-02-26T02:20:08;2.80;;;0.40;;
5507;SDS011;2776;51.046;6.772;2024-02-26T02:22:37;0.40;;;0.40;;
5507;SDS011;2776;51.046;6.772;2024-02-26T02:25:04;0.20;;;0.20;;
5507;SDS011;2776;51.046;6.772;2024-02-26T02:27:31;0.30;;;0.30;;
5507;SDS011;2776;51.046;6.772;2024-02-26T02:29:58;0.20;;;0.20;;
5507;SDS011;2776;51.046;6.772;2024-02-26T02:32:25;1.00;;;0.33;;
5507;SDS011;2776;51.046;6.772;2024-02-26T02:34:53;0.30;;;0.30;;
5507;SDS011;2776;51.046;6.772;2024-02-26T02:37:20;0.80;;;0.60;;
5507;SDS011;2776;51.046;6.772;2024-02-26T02:39:48;0.63;;;0.40;;
5507;SDS011;2776;51.046;6.772;2024-02-26T02:42:15;0.20;;;0.20;;
5507;SDS011;2776;51.046;6.772;2024-02-26T02:44:42;0.20;;;0.20;;
5507;SDS011;2776;51.046;6.772;2024-02-26T02:47:09;0.20;;;0.20;;
5507;SDS011;2776;51.046;6.772;2024-02-26T02:49:36;0.63;;;0.40;;
5507;SDS011;2776;51.046;6.772;2024-02-26T02:52:03;0.57;;;0.37;;
5507;SDS011;2776;51.046;6.772;2024-02-26T02:54:30;0.77;;;0.47;;
5507;SDS011;2776;51.046;6.772;2024-02-26T02:56:59;0.30;;;0.30;;
5507;SDS011;2776;51.046;6.772;2024-02-26T02:59:25;0.63;;;0.40;;
5507;SDS011;2776;51.046;6.772;2024-02-26T03:01:53;0.30;;;0.30;;
5507;SDS011;2776;51.046;6.772;2024-02-26T03:04:19;0.97;;;0.40;;
5507;SDS011;2776;51.046;6.772;2024-02-26T03:06:46;0.40;;;0.40;;
5507;SDS011;2776;51.046;6.772;2024-02-26T03:09:13;1.13;;;0.63;;
5507;SDS011;2776;51.046;6.772;2024-02-26T03:11:39;0.77;;;0.60;;
5507;SDS011;2776;51.046;6.772;2024-02-26T03:14:08;0.30;;;0.30;;
5507;SDS011;2776;51.046;6.772;2024-02-26T03:16:34;0.70;;;0.60;;
5507;SDS011;2776;51.046;6.772;2024-02-26T03:19:01;1.13;;;0.30;;
5507;SDS011;2776;51.046;6.772;2024-02-26T03:21:29;0.57;;;0.40;;
5507;SDS011;2776;51.046;6.772;2024-02-26T03:23:55;1.50;;;0.30;;
5507;SDS011;2776;51.046;6.772;2024-02-26T03:26:22;1.13;;;0.40;;
5507;SDS011;2776;51.046;6.772;2024-02-26T03:28:49;0.30;;;0.27;;
5507;SDS011;2776;51.046;6.772;2024-02-26T03:31:17;4.63;;;0.40;;
5507;SDS011;2776;51.046;6.772;2024-02-26T03:33:44;0.70;;;0.50;;
5507;SDS011;2776;51.046;6.772;2024-02-26T03:36:11;0.87;;;0.30;;
5507;SDS011;2776;51.046;6.772;2024-02-26T03:38:38;0.40;;;0.20;;
5507;SDS011;2776;51.046;6.772;2024-02-26T03:41:05;0.63;;;0.50;;
5507;SDS011;2776;51.046;6.772;2024-02-26T03:43:33;0.30;;;0.30;;
5507;SDS011;2776;51.046;6.772;2024-02-26T03:46:00;0.43;;;0.43;;
5507;SDS011;2776;51.046;6.772;2024-02-26T03:48:28;0.40;;;0.30;;
5507;SDS011;2776;51.046;6.772;2024-02-26T03:50:55;0.40;;;0.40;;
5507;SDS011;2776;51.046;6.772;2024-02-26T03:53:22;3.80;;;0.37;;
5507;SDS011;2776;51.046;6.772;2024-02-26T03:55:48;0.30;;;0.30;;
5507;SDS011;2776;51.046;6.772;2024-02-26T03:58:17;0.57;;;0.37;;
5507;SDS011;2776;51.046;6.772;2024-02-26T04:00:43;0.30;;;0.30;;
5507;SDS011;2776;51.046;6.772;2024-02-26T04:03:12;0.30;;;0.30;;
5507;SDS011;2776;51.046;6.772;2024-02-26T04:05:40;0.47;;;0.27;;
5507;SDS011;2776;51.046;6.772;2024-02-26T04:08:07;0.27;;;0.27;;
5507;SDS011;2776;51.046;6.772;2024-02-26T04:10:35;4.00;;;0.40;;
5507;SDS011;2776;51.046;6.772;2024-02-26T04:13:03;0.27;;;0.27;;
5507;SDS011;2776;51.046;6.772;2024-02-26T04:15:30;1.30;;;0.50;;
5507;SDS011;2776;51.046;6.772;2024-02-26T04:17:57;1.03;;;0.50;;
5507;SDS011;2776;51.046;6.772;2024-02-26T04:20:24;0.43;;;0.40;;
5507;SDS011;2776;51.046;6.772;2024-02-26T04:22:52;0.30;;;0.30;;
5507;SDS011;2776;51.046;6.772;2024-02-26T04:25:19;0.77;;;0.30;;
5507;SDS011;2776;51.046;6.772;2024-02-26T04:27:46;0.50;;;0.50;;
5507;SDS011;2776;51.046;6.772;2024-02-26T04:30:12;0.37;;;0.30;;
5507;SDS011;2776;51.046;6.772;2024-02-26T04:32:39;1.33;;;0.23;;
5507;SDS011;2776;51.046;6.772;2024-02-26T04:35:06;0.27;;;0.27;;
5507;SDS011;2776;51.046;6.772;2024-02-26T04:37:33;1.03;;;0.33;;
5507;SDS011;2776;51.046;6.772;2024-02-26T04:40:01;0.70;;;0.30;;
5507;SDS011;2776;51.046;6.772;2024-02-26T04:42:29;0.93;;;0.57;;
5507;SDS011;2776;51.046;6.772;2024-02-26T04:44:56;1.70;;;0.43;;
5507;SDS011;2776;51.046;6.772;2024-02-26T04:47:23;2.53;;;0.40;;
5507;SDS011;2776;51.046;6.772;2024-02-26T04:49:50;1.33;;;0.50;;
5507;SDS011;2776;51.046;6.772;2024-02-26T04:52:16;0.37;;;0.37;;
5507;SDS011;2776;51.046;6.772;2024-02-26T04:54:44;0.20;;;0.20;;
5507;SDS011;2776;51.046;6.772;2024-02-26T04:57:12;0.30;;;0.30;;
5507;SDS011;2776;51.046;6.772;2024-02-26T04:59:39;0.30;;;0.30;;
5507;SDS011;2776;51.046;6.772;2024-02-26T05:02:07;0.43;;;0.30;;
5507;SDS011;2776;51.046;6.772;2024-02-26T05:04:34;5.13;;;0.50;;
5507;SDS011;2776;51.046;6.772;2024-02-26T05:07:01;0.63;;;0.57;;
5507;SDS011;2776;51.046;6.772;2024-02-26T05:09:28;0.50;;;0.50;;
5507;SDS011;2776;51.046;6.772;2024-02-26T05:11:55;0.93;;;0.73;;
5507;SDS011;2776;51.046;6.772;2024-02-26T05:14:23;0.30;;;0.30;;
5507;SDS011;2776;51.046;6.772;2024-02-26T05:16:50;1.37;;;0.50;;
5507;SDS011;2776;51.046;6.772;2024-02-26T05:19:16;0.50;;;0.50;;
5507;SDS011;2776;51.046;6.772;2024-02-26T05:21:43;0.43;;;0.43;;
5507;SDS011;2776;51.046;6.772;2024-02-26T05:24:12;2.43;;;0.50;;
5507;SDS011;2776;51.046;6.772;2024-02-26T05:26:40;0.30;;;0.30;;
5507;SDS011;2776;51.046;6.772;2024-02-26T05:29:07;0.77;;;0.53;;
5507;SDS011;2776;51.046;6.772;2024-02-26T05:31:35;0.40;;;0.30;;
5507;SDS011;2776;51.046;6.772;2024-02-26T05:34:02;0.30;;;0.27;;
5507;SDS011;2776;51.046;6.772;2024-02-26T05:36:28;0.40;;;0.40;;
5507;SDS011;2776;51.046;6.772;2024-02-26T05:38:58;0.50;;;0.50;;
5507;SDS011;2776;51.046;6.772;2024-02-26T05:41:25;0.33;;;0.33;;
5507;SDS011;2776;51.046;6.772;2024-02-26T05:43:52;0.33;;;0.30;;
5507;SDS011;2776;51.046;6.772;2024-02-26T05:46:19;0.30;;;0.30;;
5507;SDS011;2776;51.046;6.772;2024-02-26T05:48:49;4.90;;;1.37;;
5507;SDS011;2776;51.046;6.772;2024-02-26T05:51:17;0.57;;;0.57;;
5507;SDS011;2776;51.046;6.772;2024-02-26T05:53:44;0.40;;;0.40;;
5507;SDS011;2776;51.046;6.772;2024-02-26T05:56:11;2.10;;;0.43;;
5507;SDS011;2776;51.046;6.772;2024-02-26T05:58:38;0.40;;;0.40;;
5507;SDS011;2776;51.046;6.772;2024-02-26T06:01:05;0.20;;;0.20;;
5507;SDS011;2776;51.046;6.772;2024-02-26T06:03:32;0.60;;;0.50;;
5507;SDS011;2776;51.046;6.772;2024-02-26T06:06:00;0.60;;;0.60;;
5507;SDS011;2776;51.046;6.772;2024-02-26T06:08:27;0.93;;;0.50;;
5507;SDS011;2776;51.046;6.772;2024-02-26T06:10:53;0.30;;;0.30;;
5507;SDS011;2776;51.046;6.772;2024-02-26T06:13:20;0.30;;;0.30;;
5507;SDS011;2776;51.046;6.772;2024-02-26T06:15:47;0.30;;;0.30;;
5507;SDS011;2776;51.046;6.772;2024-02-26T06:18:13;0.30;;;0.30;;
5507;SDS011;2776;51.046;6.772;2024-02-26T06:20:41;0.20;;;0.20;;
5507;SDS011;2776;51.046;6.772;2024-02-26T06:23:09;0.23;;;0.23;;
5507;SDS011;2776;51.046;6.772;2024-02-26T06:25:36;0.50;;;0.50;;
5507;SDS011;2776;51.046;6.772;2024-02-26T06:28:02;0.93;;;0.47;;
5507;SDS011;2776;51.046;6.772;2024-02-26T06:30:30;0.50;;;0.40;;
5507;SDS011;2776;51.046;6.772;2024-02-26T06:32:56;0.73;;;0.50;;
5507;SDS011;2776;51.046;6.772;2024-02-26T06:35:23;0.80;;;0.57;;
5507;SDS011;2776;51.046;6.772;2024-02-26T06:37:50;0.80;;;0.77;;
5507;SDS011;2776;51.046;6.772;2024-02-26T06:40:19;0.80;;;0.63;;
5507;SDS011;2776;51.046;6.772;2024-02-26T06:42:46;0.50;;;0.50;;
5507;SDS011;2776;51.046;6.772;2024-02-26T06:45:12;1.00;;;0.57;;
5507;SDS011;2776;51.046;6.772;2024-02-26T06:47:39;0.80;;;0.80;;
5507;SDS011;2776;51.046;6.772;2024-02-26T06:50:06;0.80;;;0.80;;
5507;SDS011;2776;51.046;6.772;2024-02-26T06:52:33;1.27;;;1.00;;
5507;SDS011;2776;51.046;6.772;2024-02-26T06:55:00;0.90;;;0.90;;
5507;SDS011;2776;51.046;6.772;2024-02-26T06:57:28;1.03;;;0.73;;
5507;SDS011;2776;51.046;6.772;2024-02-26T06:59:55;1.03;;;0.77;;
5507;SDS011;2776;51.046;6.772;2024-02-26T07:02:23;1.17;;;1.07;;
5507;SDS011;2776;51.046;6.772;2024-02-26T07:04:50;0.60;;;0.60;;
5507;SDS011;2776;51.046;6.772;2024-02-26T07:07:17;2.97;;;1.13;;
5507;SDS011;2776;51.046;6.772;2024-02-26T07:09:44;1.30;;;1.20;;
5507;SDS011;2776;51.046;6.772;2024-02-26T07:12:10;0.83;;;0.80;;
5507;SDS011;2776;51.046;6.772;2024-02-26T07:14:38;1.10;;;0.80;;
5507;SDS011;2776;51.046;6.772;2024-02-26T07:17:06;0.63;;;0.63;;
5507;SDS011;2776;51.046;6.772;2024-02-26T07:19:33;1.20;;;1.10;;
5507;SDS011;2776;51.046;6.772;2024-02-26T07:21:59;0.80;;;0.80;;
5507;SDS011;2776;51.046;6.772;2024-02-26T07:24:26;1.23;;;1.13;;
5507;SDS011;2776;51.046;6.772;2024-02-26T07:26:53;1.13;;;0.87;;
5507;SDS011;2776;51.046;6.772;2024-02-26T07:29:20;0.80;;;0.80;;
5507;SDS011;2776;51.046;6.772;2024-02-26T07:31:48;0.70;;;0.67;;
5507;SDS011;2776;51.046;6.772;2024-02-26T07:34:15;0.90;;;0.90;;
5507;SDS011;2776;51.046;6.772;2024-02-26T07:36:42;1.00;;;1.00;;
5507;SDS011;2776;51.046;6.772;2024-02-26T07:39:09;1.87;;;0.70;;
5507;SDS011;2776;51.046;6.772;2024-02-26T07:41:36;0.40;;;0.40;;
5507;SDS011;2776;51.046;6.772;2024-02-26T07:44:04;0.80;;;0.80;;
5507;SDS011;2776;51.046;6.772;2024-02-26T07:46:30;1.30;;;0.70;;
5507;SDS011;2776;51.046;6.772;2024-02-26T07:48:58;0.77;;;0.77;;
5507;SDS011;2776;51.046;6.772;2024-02-26T07:51:25;2.00;;;0.80;;
5507;SDS011;2776;51.046;6.772;2024-02-26T07:53:52;0.83;;;0.50;;
5507;SDS011;2776;51.046;6.772;2024-02-26T07:56:19;0.50;;;0.50;;
5507;SDS011;2776;51.046;6.772;2024-02-26T07:58:45;2.00;;;1.00;;
5507;SDS011;2776;51.046;6.772;2024-02-26T08:01:12;0.77;;;0.77;;
5507;SDS011;2776;51.046;6.772;2024-02-26T08:03:39;0.87;;;0.77;;
5507;SDS011;2776;51.046;6.772;2024-02-26T08:06:08;0.97;;;0.73;;
5507;SDS011;2776;51.046;6.772;2024-02-26T08:08:35;0.73;;;0.73;;
5507;SDS011;2776;51.046;6.772;2024-02-26T08:11:02;1.67;;;0.57;;
5507;SDS011;2776;51.046;6.772;2024-02-26T08:13:29;0.70;;;0.70;;
5507;SDS011;2776;51.046;6.772;2024-02-26T08:15:56;1.23;;;0.87;;
5507;SDS011;2776;51.046;6.772;2024-02-26T08:18:23;2.83;;;1.33;;
5507;SDS011;2776;51.046;6.772;2024-02-26T08:20:50;1.87;;;0.90;;
5507;SDS011;2776;51.046;6.772;2024-02-26T08:23:18;2.50;;;1.00;;
5507;SDS011;2776;51.046;6.772;2024-02-26T08:25:45;1.17;;;0.87;;
5507;SDS011;2776;51.046;6.772;2024-02-26T08:28:12;0.67;;;0.60;;
5507;SDS011;2776;51.046;6.772;2024-02-26T08:30:39;0.40;;;0.40;;
5507;SDS011;2776;51.046;6.772;2024-02-26T08:33:05;0.70;;;0.40;;
5507;SDS011;2776;51.046;6.772;2024-02-26T08:35:32;0.50;;;0.50;;
5507;SDS011;2776;51.046;6.772;2024-02-26T08:37:59;0.70;;;0.60;;
5507;SDS011;2776;51.046;6.772;2024-02-26T08:40:27;0.87;;;0.57;;
5507;SDS011;2776;51.046;6.772;2024-02-26T08:42:54;0.73;;;0.60;;
5507;SDS011;2776;51.046;6.772;2024-02-26T08:45:21;0.50;;;0.50;;
5507;SDS011;2776;51.046;6.772;2024-02-26T08:47:48;0.70;;;0.70;;
5507;SDS011;2776;51.046;6.772;2024-02-26T08:50:14;0.67;;;0.47;;
5507;SDS011;2776;51.046;6.772;2024-02-26T08:52:41;0.63;;;0.53;;
5507;SDS011;2776;51.046;6.772;2024-02-26T08:55:09;0.40;;;0.40;;
5507;SDS011;2776;51.046;6.772;2024-02-26T08:57:37;0.80;;;0.73;;
5507;SDS011;2776;51.046;6.772;2024-02-26T09:00:04;1.10;;;1.00;;
5507;SDS011;2776;51.046;6.772;2024-02-26T09:02:31;3.50;;;0.67;;
5507;SDS011;2776;51.046;6.772;2024-02-26T09:04:58;0.87;;;0.80;;
5507;SDS011;2776;51.046;6.772;2024-02-26T09:07:25;0.97;;;0.60;;
5507;SDS011;2776;51.046;6.772;2024-02-26T09:09:52;0.60;;;0.60;;
5507;SDS011;2776;51.046;6.772;2024-02-26T09:12:18;0.97;;;0.80;;
5507;SDS011;2776;51.046;6.772;2024-02-26T09:14:47;1.03;;;0.80;;
5507;SDS011;2776;51.046;6.772;2024-02-26T09:17:14;0.43;;;0.43;;
5507;SDS011;2776;51.046;6.772;2024-02-26T09:19:40;0.43;;;0.43;;
5507;SDS011;2776;51.046;6.772;2024-02-26T09:22:09;0.60;;;0.60;;
5507;SDS011;2776;51.046;6.772;2024-02-26T09:24:36;2.10;;;1.03;;
5507;SDS011;2776;51.046;6.772;2024-02-26T09:27:03;1.70;;;0.90;;
5507;SDS011;2776;51.046;6.772;2024-02-26T09:29:30;2.23;;;0.97;;
5507;SDS011;2776;51.046;6.772;2024-02-26T09:31:58;2.10;;;0.97;;
5507;SDS011;2776;51.046;6.772;2024-02-26T09:34:24;1.07;;;0.80;;
5507;SDS011;2776;51.046;6.772;2024-02-26T09:36:51;1.00;;;0.67;;
5507;SDS011;2776;51.046;6.772;2024-02-26T09:39:18;0.70;;;0.70;;
5507;SDS011;2776;51.046;6.772;2024-02-26T09:41:46;0.60;;;0.60;;
5507;SDS011;2776;51.046;6.772;2024-02-26T09:44:14;1.10;;;0.80;;
5507;SDS011;2776;51.046;6.772;2024-02-26T09:46:46;0.83;;;0.70;;
5507;SDS011;2776;51.046;6.772;2024-02-26T09:49:16;0.87;;;0.60;;
5507;SDS011;2776;51.046;6.772;2024-02-26T09:51:44;1.33;;;0.70;;
5507;SDS011;2776;51.046;6.772;2024-02-26T09:54:11;1.27;;;1.13;;
5507;SDS011;2776;51.046;6.772;2024-02-26T09:56:40;1.53;;;1.20;;
5507;SDS011;2776;51.046;6.772;2024-02-26T09:59:10;2.07;;;0.80;;
5507;SDS011;2776;51.046;6.772;2024-02-26T10:01:39;0.50;;;0.50;;
5507;SDS011;2776;51.046;6.772;2024-02-26T10:04:08;0.70;;;0.70;;
5507;SDS011;2776;51.046;6.772;2024-02-26T10:06:37;1.10;;;1.00;;
5507;SDS011;2776;51.046;6.772;2024-02-26T10:09:04;2.40;;;0.87;;
5507;SDS011;2776;51.046;6.772;2024-02-26T10:11:34;0.43;;;0.43;;
5507;SDS011;2776;51.046;6.772;2024-02-26T10:14:01;1.40;;;1.23;;
5507;SDS011;2776;51.046;6.772;2024-02-26T10:16:28;1.57;;;0.90;;
5507;SDS011;2776;51.046;6.772;2024-02-26T10:18:55;2.27;;;0.70;;
5507;SDS011;2776;51.046;6.772;2024-02-26T10:21:22;0.83;;;0.53;;
5507;SDS011;2776;51.046;6.772;2024-02-26T10:23:50;1.43;;;0.60;;
5507;SDS011;2776;51.046;6.772;2024-02-26T10:26:17;1.80;;;0.70;;
5507;SDS011;2776;51.046;6.772;2024-02-26T10:28:45;0.80;;;0.80;;
5507;SDS011;2776;51.046;6.772;2024-02-26T10:31:13;0.97;;;0.90;;
5507;SDS011;2776;51.046;6.772;2024-02-26T10:33:41;1.50;;;0.90;;
5507;SDS011;2776;51.046;6.772;2024-02-26T10:36:09;0.77;;;0.73;;
5507;SDS011;2776;51.046;6.772;2024-02-26T10:38:36;1.20;;;0.80;;
5507;SDS011;2776;51.046;6.772;2024-02-26T10:41:05;1.03;;;0.80;;
5507;SDS011;2776;51.046;6.772;2024-02-26T10:43:33;1.53;;;0.80;;
5507;SDS011;2776;51.046;6.772;2024-02-26T10:46:00;0.83;;;0.83;;
5507;SDS011;2776;51.046;6.772;2024-02-26T10:48:27;1.03;;;0.57;;
5507;SDS011;2776;51.046;6.772;2024-02-26T10:50:53;0.90;;;0.70;;
5507;SDS011;2776;51.046;6.772;2024-02-26T10:53:22;0.80;;;0.70;;
5507;SDS011;2776;51.046;6.772;2024-02-26T10:55:52;1.20;;;1.00;;
5507;SDS011;2776;51.046;6.772;2024-02-26T10:58:22;1.47;;;1.03;;
5507;SDS011;2776;51.046;6.772;2024-02-26T11:00:50;2.60;;;1.00;;
5507;SDS011;2776;51.046;6.772;2024-02-26T11:03:18;1.30;;;0.73;;
5507;SDS011;2776;51.046;6.772;2024-02-26T11:05:46;1.20;;;0.97;;
5507;SDS011;2776;51.046;6.772;2024-02-26T11:08:14;1.03;;;0.83;;
5507;SDS011;2776;51.046;6.772;2024-02-26T11:10:41;0.73;;;0.73;;
5507;SDS011;2776;51.046;6.772;2024-02-26T11:13:09;3.60;;;1.20;;
5507;SDS011;2776;51.046;6.772;2024-02-26T11:15:41;1.30;;;0.80;;
5507;SDS011;2776;51.046;6.772;2024-02-26T11:18:09;1.20;;;0.77;;
5507;SDS011;2776;51.046;6.772;2024-02-26T11:20:38;0.93;;;0.83;;
5507;SDS011;2776;51.046;6.772;2024-02-26T11:23:06;1.23;;;1.13;;
5507;SDS011;2776;51.046;6.772;2024-02-26T11:25:34;1.83;;;1.47;;
5507;SDS011;2776;51.046;6.772;2024-02-26T11:28:02;2.60;;;1.53;;
5507;SDS011;2776;51.046;6.772;2024-02-26T11:30:32;0.90;;;0.90;;
5507;SDS011;2776;51.046;6.772;2024-02-26T11:33:05;3.33;;;1.27;;
5507;SDS011;2776;51.046;6.772;2024-02-26T11:35:33;1.40;;;1.30;;
5507;SDS011;2776;51.046;6.772;2024-02-26T11:37:59;1.20;;;0.93;;
5507;SDS011;2776;51.046;6.772;2024-02-26T11:40:26;1.40;;;1.30;;
5507;SDS011;2776;51.046;6.772;2024-02-26T11:42:53;1.10;;;0.93;;
5507;SDS011;2776;51.046;6.772;2024-02-26T11:45:38;1.37;;;1.13;;
5507;SDS011;2776;51.046;6.772;2024-02-26T11:48:20;1.13;;;1.03;;
5507;SDS011;2776;51.046;6.772;2024-02-26T11:50:48;0.83;;;0.83;;
5507;SDS011;2776;51.046;6.772;2024-02-26T11:53:19;4.23;;;1.53;;
5507;SDS011;2776;51.046;6.772;2024-02-26T11:55:47;2.90;;;1.73;;
5507;SDS011;2776;51.046;6.772;2024-02-26T11:58:14;1.87;;;1.07;;
5507;SDS011;2776;51.046;6.772;2024-02-26T12:00:41;1.90;;;1.17;;
5507;SDS011;2776;51.046;6.772;2024-02-26T12:03:08;2.43;;;1.20;;
5507;SDS011;2776;51.046;6.772;2024-02-26T12:05:38;1.00;;;0.90;;
5507;SDS011;2776;51.046;6.772;2024-02-26T12:08:06;1.77;;;1.37;;
5507;SDS011;2776;51.046;6.772;2024-02-26T12:10:34;2.17;;;1.23;;
5507;SDS011;2776;51.046;6.772;2024-02-26T12:13:05;1.10;;;1.00;;
5507;SDS011;2776;51.046;6.772;2024-02-26T12:15:33;1.47;;;1.20;;
5507;SDS011;2776;51.046;6.772;2024-02-26T12:18:04;0.50;;;0.50;;
5507;SDS011;2776;51.046;6.772;2024-02-26T12:20:32;1.17;;;1.07;;
5507;SDS011;2776;51.046;6.772;2024-02-26T12:23:01;1.20;;;0.80;;
5507;SDS011;2776;51.046;6.772;2024-02-26T12:25:29;1.37;;;0.93;;
5507;SDS011;2776;51.046;6.772;2024-02-26T12:27:56;5.40;;;1.27;;
5507;SDS011;2776;51.046;6.772;2024-02-26T12:30:24;1.77;;;1.03;;
5507;SDS011;2776;51.046;6.772;2024-02-26T12:32:52;1.70;;;1.20;;
5507;SDS011;2776;51.046;6.772;2024-02-26T12:35:22;1.93;;;1.37;;
5507;SDS011;2776;51.046;6.772;2024-02-26T12:37:49;2.27;;;1.43;;
5507;SDS011;2776;51.046;6.772;2024-02-26T12:40:18;1.20;;;1.10;;
5507;SDS011;2776;51.046;6.772;2024-02-26T12:42:45;3.37;;;1.90;;
5507;SDS011;2776;51.046;6.772;2024-02-26T12:45:12;2.50;;;1.70;;
5507;SDS011;2776;51.046;6.772;2024-02-26T12:47:41;1.03;;;1.03;;
5507;SDS011;2776;51.046;6.772;2024-02-26T12:50:08;1.70;;;1.60;;
5507;SDS011;2776;51.046;6.772;2024-02-26T12:52:36;2.17;;;1.67;;
5507;SDS011;2776;51.046;6.772;2024-02-26T12:55:05;7.23;;;1.70;;
5507;SDS011;2776;51.046;6.772;2024-02-26T12:57:35;3.77;;;2.13;;
5507;SDS011;2776;51.046;6.772;2024-02-26T13:00:03;3.40;;;2.00;;
5507;SDS011;2776;51.046;6.772;2024-02-26T13:02:34;1.90;;;1.73;;
5507;SDS011;2776;51.046;6.772;2024-02-26T13:05:02;1.73;;;1.63;;
5507;SDS011;2776;51.046;6.772;2024-02-26T13:07:29;2.50;;;2.17;;
5507;SDS011;2776;51.046;6.772;2024-02-26T13:09:56;4.10;;;2.00;;
5507;SDS011;2776;51.046;6.772;2024-02-26T13:12:24;2.97;;;1.73;;
5507;SDS011;2776;51.046;6.772;2024-02-26T13:14:59;2.87;;;2.10;;
5507;SDS011;2776;51.046;6.772;2024-02-26T13:17:26;2.87;;;2.10;;
5507;SDS011;2776;51.046;6.772;2024-02-26T13:19:53;2.70;;;2.17;;
5507;SDS011;2776;51.046;6.772;2024-02-26T13:22:20;2.63;;;1.97;;
5507;SDS011;2776;51.046;6.772;2024-02-26T13:24:53;2.67;;;2.03;;
5507;SDS011;2776;51.046;6.772;2024-02-26T13:27:20;2.13;;;1.73;;
5507;SDS011;2776;51.046;6.772;2024-02-26T13:29:48;2.37;;;2.13;;
5507;SDS011;2776;51.046;6.772;2024-02-26T13:32:16;2.57;;;1.80;;
5507;SDS011;2776;51.046;6.772;2024-02-26T13:34:43;4.23;;;2.03;;
5507;SDS011;2776;51.046;6.772;2024-02-26T13:37:09;2.90;;;2.13;;
5507;SDS011;2776;51.046;6.772;2024-02-26T13:39:36;3.77;;;2.57;;
5507;SDS011;2776;51.046;6.772;2024-02-26T13:42:05;2.20;;;2.00;;
5507;SDS011;2776;51.046;6.772;2024-02-26T13:44:36;3.80;;;2.70;;
5507;SDS011;2776;51.046;6.772;2024-02-26T13:47:05;5.33;;;2.97;;
5507;SDS011;2776;51.046;6.772;2024-02-26T13:49:33;6.07;;;3.77;;
5507;SDS011;2776;51.046;6.772;2024-02-26T13:52:00;5.03;;;3.40;;
5507;SDS011;2776;51.046;6.772;2024-02-26T13:54:27;6.17;;;3.67;;
5507;SDS011;2776;51.046;6.772;2024-02-26T13:56:54;4.93;;;3.17;;
5507;SDS011;2776;51.046;6.772;2024-02-26T13:59:20;5.30;;;3.90;;
5507;SDS011;2776;51.046;6.772;2024-02-26T14:01:47;6.87;;;4.57;;
5507;SDS011;2776;51.046;6.772;2024-02-26T14:04:14;4.33;;;3.43;;
5507;SDS011;2776;51.046;6.772;2024-02-26T14:06:43;5.57;;;3.83;;
5507;SDS011;2776;51.046;6.772;2024-02-26T14:09:10;6.77;;;4.30;;
5507;SDS011;2776;51.046;6.772;2024-02-26T14:11:43;7.37;;;4.40;;
5507;SDS011;2776;51.046;6.772;2024-02-26T14:14:11;6.10;;;4.03;;
5507;SDS011;2776;51.046;6.772;2024-02-26T14:16:37;6.07;;;4.10;;
5507;SDS011;2776;51.046;6.772;2024-02-26T14:19:04;6.47;;;4.67;;
5507;SDS011;2776;51.046;6.772;2024-02-26T14:21:31;7.50;;;4.50;;
5507;SDS011;2776;51.046;6.772;2024-02-26T14:23:59;5.60;;;4.23;;
5507;SDS011;2776;51.046;6.772;2024-02-26T14:26:26;6.57;;;3.87;;
5507;SDS011;2776;51.046;6.772;2024-02-26T14:28:53;6.80;;;3.80;;
5507;SDS011;2776;51.046;6.772;2024-02-26T14:31:21;5.93;;;4.10;;
5507;SDS011;2776;51.046;6.772;2024-02-26T14:33:47;7.20;;;4.83;;
5507;SDS011;2776;51.046;6.772;2024-02-26T14:36:17;6.07;;;4.20;;
5507;SDS011;2776;51.046;6.772;2024-02-26T14:38:44;8.83;;;4.33;;
5507;SDS011;2776;51.046;6.772;2024-02-26T14:41:12;6.80;;;4.97;;
5507;SDS011;2776;51.046;6.772;2024-02-26T14:43:39;5.43;;;4.10;;
5507;SDS011;2776;51.046;6.772;2024-02-26T14:46:06;7.00;;;4.57;;
5507;SDS011;2776;51.046;6.772;2024-02-26T14:48:32;7.17;;;4.40;;
5507;SDS011;2776;51.046;6.772;2024-02-26T14:51:00;8.03;;;4.10;;
5507;SDS011;2776;51.046;6.772;2024-02-26T14:53:27;6.40;;;4.40;;
5507;SDS011;2776;51.046;6.772;2024-02-26T14:55:53;5.10;;;3.87;;
5507;SDS011;2776;51.046;6.772;2024-02-26T14:58:21;7.87;;;4.33;;
5507;SDS011;2776;51.046;6.772;2024-02-26T15:00:48;6.47;;;4.43;;
5507;SDS011;2776;51.046;6.772;2024-02-26T15:03:15;7.23;;;4.33;;
5507;SDS011;2776;51.046;6.772;2024-02-26T15:05:42;5.43;;;3.83;;
5507;SDS011;2776;51.046;6.772;2024-02-26T15:08:09;6.93;;;4.70;;
5507;SDS011;2776;51.046;6.772;2024-02-26T15:10:40;6.03;;;4.80;;
5507;SDS011;2776;51.046;6.772;2024-02-26T15:13:12;6.67;;;5.03;;
5507;SDS011;2776;51.046;6.772;2024-02-26T15:15:40;6.07;;;4.23;;